Time;durP1;ratioP1;P1;durP2;ratioP2;P2;SDS_P1;SDS_P2;PMS_P1;PMS_P2;Temp;Humidity;BMP_temperature;BMP_pressure;BME280_temperature;BME280_humidity;BME280_pressure;Samples;Min_cycle;Max_cycle;Signal;HPM_P1;HPM_P2
2022/09/04 00:01:07;;;;;;;5.70;3.50;;;;;;;17.12;100.00;101343.53;2611457;36;20030;-50
2022/09/04 00:03:48;;;;;;;4.63;3.38;;;;;;;17.06;100.00;101340.59;2610269;36;20038;-53
2022/09/04 00:06:21;;;;;;;5.97;3.30;;;;;;;16.98;100.00;101344.16;2610131;36;20039;-55
2022/09/04 00:09:08;;;;;;;6.32;3.70;;;;;;;16.98;100.00;101342.28;2610662;36;20034;-54
2022/09/04 00:11:45;;;;;;;4.68;3.90;;;;;;;16.97;100.00;101347.88;2611584;36;20068;-51
2022/09/04 00:14:19;;;;;;;6.72;4.20;;;;;;;17.00;100.00;101355.72;2611157;36;20076;-51
2022/09/04 00:16:53;;;;;;;6.38;3.95;;;;;;;16.98;100.00;101349.59;2612124;36;20035;-50
2022/09/04 00:19:30;;;;;;;4.28;3.25;;;;;;;16.94;100.00;101346.34;2609680;36;20137;-51
2022/09/04 00:22:01;;;;;;;4.82;3.38;;;;;;;17.03;100.00;101357.25;2611663;36;20026;-50
2022/09/04 00:24:33;;;;;;;3.15;2.85;;;;;;;16.99;100.00;101357.59;2611940;36;20098;-53
2022/09/04 00:27:09;;;;;;;5.03;3.47;;;;;;;16.95;100.00;101355.38;2611790;36;20049;-54
2022/09/04 00:29:47;;;;;;;5.63;4.07;;;;;;;16.87;100.00;101363.47;2612163;36;20053;-53
2022/09/04 00:32:23;;;;;;;4.95;3.88;;;;;;;16.89;100.00;101367.75;2612354;31;20046;-54
2022/09/04 00:35:09;;;;;;;6.50;3.70;;;;;;;16.94;100.00;101369.97;2611892;36;20046;-50
2022/09/04 00:37:42;;;;;;;4.80;3.72;;;;;;;16.91;100.00;101365.72;2610061;36;20038;-52
2022/09/04 00:40:21;;;;;;;5.95;4.25;;;;;;;16.89;100.00;101372.34;2610994;36;20079;-56
2022/09/04 00:43:05;;;;;;;6.40;4.47;;;;;;;16.89;100.00;101370.47;2612765;31;20035;-50
2022/09/04 00:45:57;;;;;;;6.25;3.92;;;;;;;16.82;100.00;101377.56;2610286;36;20023;-51
2022/09/04 00:48:48;;;;;;;5.03;3.72;;;;;;;16.89;100.00;101383.22;2609337;36;20038;-52
2022/09/04 00:51:40;;;;;;;5.32;3.80;;;;;;;17.00;100.00;101380.19;2612411;36;20041;-50
2022/09/04 00:54:23;;;;;;;6.97;4.20;;;;;;;16.85;100.00;101388.09;2611546;36;20058;-50
2022/09/04 00:57:12;;;;;;;4.55;3.42;;;;;;;16.80;100.00;101385.88;2611551;36;20511;-50
2022/09/04 00:59:47;;;;;;;;;;;;;;;16.81;100.00;101389.44;2612021;36;20604;-51
2022/09/04 01:02:25;;;;;;;6.15;4.05;;;;;;;16.76;100.00;101392.66;2612231;36;19950;-49
2022/09/04 01:05:00;;;;;;;5.05;4.25;;;;;;;16.81;100.00;101393.03;2611394;36;20054;-53
2022/09/04 01:07:47;;;;;;;6.50;4.15;;;;;;;16.77;100.00;101401.69;2611436;36;20046;-49
2022/09/04 01:10:37;;;;;;;7.60;4.32;;;;;;;16.81;100.00;101413.91;2611797;31;20057;-49
2022/09/04 01:13:11;;;;;;;6.25;4.45;;;;;;;16.72;100.00;101407.59;2612126;36;20046;-50
2022/09/04 01:15:46;;;;;;;7.90;4.70;;;;;;;16.60;100.00;101411.63;2614878;36;20439;-49
2022/09/04 01:18:20;;;;;;;4.80;4.18;;;;;;;16.63;100.00;101405.84;2612828;31;20031;-52
2022/09/04 01:21:06;;;;;;;6.25;4.20;;;;;;;16.57;100.00;101411.94;2615585;36;20031;-49
2022/09/04 01:23:54;;;;;;;5.43;4.30;;;;;;;16.64;100.00;101421.16;2613735;36;20434;-53
2022/09/04 01:26:34;;;;;;;7.22;4.38;;;;;;;16.50;100.00;101422.59;2613197;36;20026;-52
2022/09/04 01:29:17;;;;;;;7.20;4.90;;;;;;;16.45;100.00;101424.94;2616269;31;20479;-49
2022/09/04 01:31:54;;;;;;;6.47;4.50;;;;;;;16.46;100.00;101429.38;2613424;36;20082;-50
2022/09/04 01:34:35;;;;;;;5.57;4.68;;;;;;;16.53;100.00;101421.41;2613528;36;20030;-53
2022/09/04 01:37:16;;;;;;;5.72;4.43;;;;;;;16.49;100.00;101423.63;2614972;36;20077;-49
2022/09/04 01:39:48;;;;;;;6.55;5.10;;;;;;;16.41;100.00;101424.41;2614238;36;20034;-56
2022/09/04 01:42:24;;;;;;;8.15;5.05;;;;;;;16.35;100.00;101430.50;2614227;36;20022;-53
2022/09/04 01:44:52;;;;;;;6.85;4.88;;;;;;;16.37;100.00;101430.31;2614566;36;20039;-53
2022/09/04 01:47:27;;;;;;;7.27;4.67;;;;;;;16.45;100.00;101431.22;2614500;36;20041;-53
2022/09/04 01:50:03;;;;;;;7.57;4.68;;;;;;;16.46;100.00;101427.50;2613290;36;20035;-51
2022/09/04 01:52:45;;;;;;;6.65;4.72;;;;;;;16.33;100.00;101421.66;2613620;36;20085;-55
2022/09/04 01:55:23;;;;;;;7.07;4.97;;;;;;;16.24;100.00;101425.34;2613881;36;20042;-50
2022/09/04 01:58:10;;;;;;;9.63;5.78;;;;;;;16.27;100.00;101422.31;2614076;36;20031;-53
2022/09/04 02:00:50;;;;;;;7.20;5.63;;;;;;;16.17;100.00;101422.41;2614314;36;20042;-48
2022/09/04 02:03:26;;;;;;;7.00;5.45;;;;;;;16.24;100.00;101431.63;2612811;36;20038;-52
2022/09/04 02:06:03;;;;;;;7.50;5.72;;;;;;;16.26;100.00;101428.75;2614311;36;20034;-55
2022/09/04 02:08:45;;;;;;;7.40;5.55;;;;;;;16.26;100.00;101436.88;2613459;36;20042;-53
2022/09/04 02:11:17;;;;;;;8.88;5.60;;;;;;;16.23;100.00;101437.22;2614168;39;20489;-54
2022/09/04 02:14:01;;;;;;;8.85;6.25;;;;;;;16.17;100.00;101432.41;2613125;36;20042;-50
2022/09/04 02:16:41;;;;;;;8.30;6.45;;;;;;;16.01;100.00;101444.00;2614985;36;20069;-51
2022/09/04 02:19:25;;;;;;;8.38;5.70;;;;;;;16.11;100.00;101440.16;2613174;36;20174;-49
2022/09/04 02:22:10;;;;;;;8.68;6.25;;;;;;;16.08;100.00;101445.09;2615095;36;20035;-52
2022/09/04 02:24:49;;;;;;;6.53;5.13;;;;;;;16.01;100.00;101450.28;2615443;36;20065;-53
2022/09/04 02:27:22;;;;;;;8.60;6.43;;;;;;;16.01;100.00;101450.28;2614528;36;20041;-50
2022/09/04 02:30:02;;;;;;;8.43;5.85;;;;;;;15.94;100.00;101457.34;2614847;36;20035;-51
2022/09/04 02:32:37;;;;;;;8.52;6.95;;;;;;;15.94;100.00;101446.47;2612648;36;20034;-51
2022/09/04 02:35:13;;;;;;;8.48;6.28;;;;;;;16.07;100.00;101448.78;2615229;36;20580;-52
2022/09/04 02:37:52;;;;;;;10.30;6.75;;;;;;;15.96;100.00;101452.63;2614064;36;20034;-49
2022/09/04 02:40:27;;;;;;;9.15;6.32;;;;;;;15.91;100.00;101446.78;2615199;36;20068;-55
2022/09/04 02:43:15;;;;;;;7.07;5.65;;;;;;;15.95;100.00;101450.91;2613364;36;20030;-53
2022/09/04 02:45:52;;;;;;;9.10;6.03;;;;;;;15.94;100.00;101454.63;2616050;31;20534;-52
2022/09/04 02:48:28;;;;;;;9.57;6.97;;;;;;;15.92;100.00;101462.09;2614096;36;20029;-52
2022/09/04 02:51:12;;;;;;;9.32;6.88;;;;;;;15.89;100.00;101465.97;2613277;36;20054;-51
2022/09/04 02:53:51;;;;;;;10.15;7.47;;;;;;;15.88;100.00;101455.25;2616029;31;20034;-55
2022/09/04 02:56:30;;;;;;;9.60;7.05;;;;;;;15.88;100.00;101461.53;2615155;36;20073;-55
2022/09/04 02:59:22;;;;;;;10.90;7.78;;;;;;;15.85;100.00;101463.72;2616042;36;20034;-55
2022/09/04 03:01:58;;;;;;;8.05;6.75;;;;;;;15.92;100.00;101462.09;2615561;36;20035;-51
2022/09/04 03:04:37;;;;;;;10.25;7.13;;;;;;;15.93;100.00;101466.50;2615517;31;20022;-51
2022/09/04 03:07:12;;;;;;;14.07;8.48;;;;;;;15.93;100.00;101469.22;2614773;36;20031;-50
2022/09/04 03:09:46;;;;;;;11.00;8.32;;;;;;;15.88;100.00;101480.53;2614898;36;20034;-52
2022/09/04 03:12:30;;;;;;;10.63;7.53;;;;;;;15.92;100.00;101472.94;2615192;31;20034;-49
2022/09/04 03:15:09;;;;;;;10.45;8.05;;;;;;;16.16;100.00;101474.16;2615735;36;20057;-55
2022/09/04 03:17:48;;;;;;;12.98;7.05;;;;;;;16.07;100.00;101476.78;2614546;36;20097;-56
2022/09/04 03:20:23;;;;;;;9.55;7.18;;;;;;;16.02;100.00;101473.72;2613066;36;20065;-52
2022/09/04 03:22:57;;;;;;;9.10;7.03;;;;;;;16.06;100.00;101479.66;2632613;36;20042;-49
2022/09/04 03:25:46;;;;;;;9.85;6.97;;;;;;;16.08;100.00;101483.94;2632771;36;20022;-49
2022/09/04 03:28:24;;;;;;;11.18;8.23;;;;;;;15.98;100.00;101480.47;2614306;36;20074;-54
2022/09/04 03:30:53;;;;;;;9.32;7.50;;;;;;;15.94;100.00;101476.34;2614624;36;20035;-53
2022/09/04 03:33:35;;;;;;;9.63;7.90;;;;;;;15.96;100.00;101479.78;2614998;36;20031;-49
2022/09/04 03:36:12;;;;;;;11.30;8.05;;;;;;;15.86;100.00;101484.44;2614532;36;20069;-52
2022/09/04 03:38:49;;;;;;;11.05;7.40;;;;;;;15.86;100.00;101490.72;2614955;36;20509;-55
2022/09/04 03:41:26;;;;;;;12.02;7.93;;;;;;;15.91;100.00;101488.34;2614342;36;20630;-53
2022/09/04 03:44:03;;;;;;;12.07;8.50;;;;;;;15.93;100.00;101491.78;2615117;36;20034;-52
2022/09/04 03:46:43;;;;;;;11.27;7.80;;;;;;;16.08;100.00;101493.97;2615602;36;20033;-53
2022/09/04 03:49:27;;;;;;;11.60;8.20;;;;;;;15.99;100.00;101498.47;2612698;36;20038;-51
2022/09/04 03:52:05;;;;;;;10.10;7.97;;;;;;;15.95;100.00;101494.34;2615580;36;20057;-53
2022/09/04 03:54:45;;;;;;;9.65;7.35;;;;;;;15.87;100.00;101494.25;2614480;36;20956;-52
2022/09/04 03:57:27;;;;;;;11.57;8.00;;;;;;;15.84;100.00;101502.72;2615074;36;20047;-50
2022/09/04 04:00:05;;;;;;;12.98;8.02;;;;;;;15.89;100.00;101511.25;2615203;36;20057;-51
2022/09/04 04:02:48;;;;;;;12.82;8.68;;;;;;;15.74;100.00;101514.47;2614706;32;20054;-53
2022/09/04 04:05:28;;;;;;;10.57;7.85;;;;;;;15.70;100.00;101518.50;2614444;36;20059;-54
2022/09/04 04:08:12;;;;;;;11.80;8.18;;;;;;;15.66;100.00;101527.09;2616397;36;20407;-52
2022/09/04 04:10:57;;;;;;;9.55;7.80;;;;;;;15.66;100.00;101527.09;2615860;31;20054;-50
2022/09/04 04:13:56;;;;;;;9.98;7.93;;;;;;;15.69;100.00;101526.78;2614788;31;20061;-53
2022/09/04 04:16:39;;;;;;;11.93;8.27;;;;;;;15.71;100.00;101525.66;2616263;36;20038;-51
2022/09/04 04:19:38;;;;;;;10.93;7.47;;;;;;;15.73;100.00;101528.19;2614199;36;20076;-54
2022/09/04 04:22:30;;;;;;;12.25;8.45;;;;;;;15.74;100.00;101530.75;2615205;36;20023;-53
2022/09/04 04:25:18;;;;;;;12.88;8.60;;;;;;;15.75;100.00;101535.19;2612090;36;20035;-56
2022/09/04 04:28:02;;;;;;;10.18;7.57;;;;;;;15.76;100.00;101527.88;2614276;36;20027;-50
2022/09/04 04:30:41;;;;;;;12.93;8.07;;;;;;;15.74;100.00;101529.91;2613786;36;20037;-52
2022/09/04 04:33:23;;;;;;;10.60;7.95;;;;;;;15.68;100.00;101536.81;2613476;36;20037;-52
2022/09/04 04:36:01;;;;;;;16.90;8.52;;;;;;;15.62;100.00;101537.44;2613882;36;20073;-53
2022/09/04 04:38:44;;;;;;;12.13;8.98;;;;;;;15.73;100.00;101541.78;2615033;31;21451;-50
2022/09/04 04:41:27;;;;;;;11.88;8.80;;;;;;;15.72;100.00;101535.50;2614206;36;20061;-51
2022/09/04 04:44:13;;;;;;;13.35;8.82;;;;;;;15.75;100.00;101543.34;2615677;31;20046;-51
2022/09/04 04:47:00;;;;;;;13.73;9.50;;;;;;;15.81;100.00;101543.75;2616113;31;20030;-50
2022/09/04 04:49:39;;;;;;;15.90;8.77;;;;;;;15.72;100.00;101553.63;2612584;36;20054;-50
2022/09/04 04:52:22;;;;;;;14.13;9.25;;;;;;;15.69;100.00;101554.78;2615333;36;20550;-53
2022/09/04 04:55:06;;;;;;;13.48;9.88;;;;;;;15.65;100.00;101569.69;2614881;36;20511;-50
2022/09/04 04:57:45;;;;;;;12.43;9.77;;;;;;;15.75;100.00;101559.63;2615972;36;20431;-54
2022/09/04 05:00:18;;;;;;;12.20;8.93;;;;;;;15.73;100.00;101558.91;2614878;36;20049;-49
2022/09/04 05:02:59;;;;;;;12.07;8.55;;;;;;;15.66;100.00;101573.25;2613621;36;20053;-52
2022/09/04 05:05:48;;;;;;;12.40;9.05;;;;;;;15.62;100.00;101570.00;2615974;36;20034;-53
2022/09/04 05:08:27;;;;;;;13.00;9.05;;;;;;;15.64;100.00;101577.97;2614916;36;20034;-52
2022/09/04 05:11:04;;;;;;;14.52;9.38;;;;;;;15.61;100.00;101579.13;2614311;36;20122;-53
2022/09/04 05:13:40;;;;;;;13.73;9.73;;;;;;;15.57;100.00;101592.13;2614213;36;20038;-55
2022/09/04 05:16:19;;;;;;;13.48;10.25;;;;;;;15.66;100.00;101590.38;2615019;36;20023;-53
2022/09/04 05:18:54;;;;;;;14.05;9.93;;;;;;;15.80;100.00;101589.03;2614302;36;20057;-50
2022/09/04 05:21:30;;;;;;;13.20;8.75;;;;;;;15.80;100.00;101599.03;2612743;36;20092;-54
2022/09/04 05:24:05;;;;;;;12.82;9.30;;;;;;;15.85;100.00;101602.16;2614291;36;20041;-52
2022/09/04 05:26:45;;;;;;;13.27;10.02;;;;;;;15.89;100.00;101598.13;2615033;36;20048;-54
2022/09/04 05:29:21;;;;;;;12.75;8.82;;;;;;;15.91;100.00;101604.25;2609461;36;20034;-54
2022/09/04 05:31:55;;;;;;;12.57;9.07;;;;;;;15.93;100.00;101604.97;2611014;36;20041;-56
2022/09/04 05:34:35;;;;;;;13.98;8.93;;;;;;;15.90;100.00;101602.53;2609953;36;20046;-52
2022/09/04 05:37:12;;;;;;;13.40;8.80;;;;;;;15.89;100.00;101609.84;2611154;31;20413;-54
2022/09/04 05:39:58;;;;;;;12.15;9.30;;;;;;;15.88;100.00;101607.28;2609747;31;20038;-51
2022/09/04 05:42:49;;;;;;;15.55;9.68;;;;;;;15.95;100.00;101608.38;2609282;36;20031;-54
2022/09/04 05:45:26;;;;;;;11.98;8.27;;;;;;;16.00;100.00;101606.03;2609600;36;20050;-52
2022/09/04 05:48:10;;;;;;;15.13;9.10;;;;;;;16.08;100.00;101619.72;2610119;36;20030;-54
2022/09/04 05:50:52;;;;;;;12.40;8.57;;;;;;;16.09;100.00;101621.44;2609929;31;20954;-52
2022/09/04 05:53:56;;;;;;;13.48;9.80;;;;;;;16.08;100.00;101625.16;2612635;36;20039;-54
2022/09/04 05:56:52;;;;;;;15.70;10.38;;;;;;;16.17;100.00;101622.53;2613118;31;20525;-51
2022/09/04 05:59:49;;;;;;;14.55;10.02;;;;;;;16.19;100.00;101634.06;2613911;31;20451;-51
2022/09/04 06:02:41;;;;;;;14.18;9.60;;;;;;;16.27;100.00;101635.00;2613759;36;20046;-52
2022/09/04 06:05:25;;;;;;;13.63;9.50;;;;;;;16.34;100.00;101639.81;2612208;36;20038;-50
2022/09/04 06:08:01;;;;;;;14.80;9.25;;;;;;;16.37;100.00;101634.06;2613355;36;20081;-56
2022/09/04 06:10:44;;;;;;;15.27;10.70;;;;;;;16.40;100.00;101634.63;2613840;36;20069;-54
2022/09/04 06:13:47;;;;;;;13.85;9.35;;;;;;;16.49;100.00;101626.53;2611231;36;20035;-55
2022/09/04 06:16:41;;;;;;;12.85;10.07;;;;;;;16.58;100.00;101637.34;2611838;36;20526;-54
2022/09/04 06:19:21;;;;;;;16.77;10.38;;;;;;;16.74;100.00;101636.63;2611843;36;20031;-56
2022/09/04 06:22:16;;;;;;;15.20;10.05;;;;;;;16.86;100.00;101630.91;2611768;36;20061;-56
2022/09/04 06:25:03;;;;;;;16.52;9.63;;;;;;;16.97;100.00;101644.28;2613865;36;20066;-56
2022/09/04 06:27:54;;;;;;;13.85;10.00;;;;;;;17.00;100.00;101641.25;2613812;36;20551;-52
2022/09/04 06:30:23;;;;;;;13.30;9.90;;;;;;;17.20;100.00;101643.78;2611800;36;20080;-51
2022/09/04 06:33:05;;;;;;;15.20;11.03;;;;;;;17.24;100.00;101637.84;2612056;31;20038;-54
2022/09/04 06:35:55;;;;;;;16.05;10.95;;;;;;;17.38;100.00;101647.28;2613917;36;20053;-55
2022/09/04 06:38:42;;;;;;;14.85;10.43;;;;;;;17.57;100.00;101653.50;2614319;36;20207;-53
2022/09/04 06:41:29;;;;;;;17.98;10.88;;;;;;;17.74;100.00;101643.53;2614375;36;20097;-51
2022/09/04 06:44:05;;;;;;;17.00;10.15;;;;;;;17.79;100.00;101647.47;2612218;36;20031;-54
2022/09/04 06:46:41;;;;;;;15.07;9.93;;;;;;;18.08;100.00;101654.41;2612353;31;20023;-53
2022/09/04 06:49:19;;;;;;;17.20;10.60;;;;;;;18.28;100.00;101654.94;2611925;36;20558;-53
2022/09/04 06:51:59;;;;;;;15.18;10.10;;;;;;;18.37;100.00;101662.13;2610524;36;20038;-51
2022/09/04 06:54:42;;;;;;;14.88;11.27;;;;;;;18.44;100.00;101661.47;2611137;36;20046;-53
2022/09/04 06:57:28;;;;;;;11.43;8.63;;;;;;;18.53;100.00;101661.28;2611683;31;20057;-54
2022/09/04 07:00:04;;;;;;;14.27;9.55;;;;;;;18.48;100.00;101657.38;2612133;36;20432;-52
2022/09/04 07:02:49;;;;;;;12.30;9.00;;;;;;;18.77;100.00;101656.88;2613322;31;20030;-53
2022/09/04 07:05:27;;;;;;;14.85;9.73;;;;;;;18.85;100.00;101656.84;2610457;36;20034;-51
2022/09/04 07:08:11;;;;;;;12.63;9.23;;;;;;;18.89;100.00;101661.00;2612091;36;20050;-50
2022/09/04 07:10:44;;;;;;;12.77;9.25;;;;;;;19.18;100.00;101665.03;2613205;31;20568;-51
2022/09/04 07:13:37;;;;;;;13.10;8.98;;;;;;;19.39;100.00;101671.81;2611191;36;20042;-49
2022/09/04 07:16:27;;;;;;;15.30;9.95;;;;;;;19.21;100.00;101670.16;2612596;36;20045;-54
2022/09/04 07:19:22;;;;;;;11.45;8.18;;;;;;;19.24;100.00;101669.81;2611261;36;20041;-54
2022/09/04 07:22:08;;;;;;;12.45;8.93;;;;;;;19.42;100.00;101677.78;2611082;31;20073;-54
2022/09/04 07:24:59;;;;;;;13.20;9.10;;;;;;;19.53;100.00;101673.81;2612275;36;20043;-52
2022/09/04 07:27:42;;;;;;;11.95;8.70;;;;;;;19.84;100.00;101669.47;2611591;36;20039;-56
2022/09/04 07:30:13;;;;;;;14.70;8.48;;;;;;;19.94;100.00;101668.22;2612543;36;20092;-52
2022/09/04 07:32:47;;;;;;;12.30;8.65;;;;;;;20.02;100.00;101672.78;2612153;36;20053;-52
2022/09/04 07:35:21;;;;;;;9.20;7.07;;;;;;;20.20;100.00;101667.06;2612000;36;20022;-54
2022/09/04 07:37:57;;;;;;;12.32;8.13;;;;;;;20.34;100.00;101672.78;2611566;36;20598;-53
2022/09/04 07:40:31;;;;;;;11.63;7.18;;;;;;;20.52;100.00;101672.50;2611334;36;20038;-51
2022/09/04 07:43:08;;;;;;;7.70;6.65;;;;;;;20.79;100.00;101665.66;2611464;36;20043;-52
2022/09/04 07:45:47;;;;;;;11.18;8.13;;;;;;;20.92;100.00;101657.69;2612136;36;20129;-52
2022/09/04 07:48:25;;;;;;;9.95;7.45;;;;;;;21.11;100.00;101666.38;2611933;36;20023;-52
2022/09/04 07:51:08;;;;;;;11.27;6.85;;;;;;;21.39;100.00;101669.31;2610207;36;20426;-55
2022/09/04 07:53:58;;;;;;;8.35;6.47;;;;;;;21.39;100.00;101668.47;2612920;36;20496;-51
2022/09/04 07:56:41;;;;;;;9.13;5.85;;;;;;;21.48;100.00;101668.22;2611859;36;20090;-51
2022/09/04 07:59:35;;;;;;;9.38;6.35;;;;;;;21.77;100.00;101676.63;2611629;36;20030;-54
2022/09/04 08:02:20;;;;;;;8.32;6.50;;;;;;;21.87;100.00;101672.53;2610992;36;20035;-53
2022/09/04 08:05:19;;;;;;;7.60;6.10;;;;;;;21.95;100.00;101679.84;2611250;36;20054;-53
2022/09/04 08:08:28;;;;;;;8.52;6.47;;;;;;;21.79;100.00;101674.53;2609087;36;21747;-54
2022/09/04 08:11:28;;;;;;;6.85;5.55;;;;;;;22.06;100.00;101681.22;2610760;36;20038;-54
2022/09/04 08:14:13;;;;;;;7.88;5.65;;;;;;;21.94;100.00;101683.59;2612561;36;20446;-52
2022/09/04 08:16:51;;;;;;;8.18;6.50;;;;;;;22.16;100.00;101689.16;2611580;36;20084;-50
2022/09/04 08:19:39;;;;;;;9.93;5.82;;;;;;;22.13;100.00;101684.03;2611839;36;20030;-54
2022/09/04 08:22:13;;;;;;;6.50;4.68;;;;;;;22.46;100.00;101695.41;2610292;31;20022;-53
2022/09/04 08:25:04;;;;;;;5.82;4.93;;;;;;;22.57;100.00;101694.06;2611922;36;20565;-51
2022/09/04 08:27:54;;;;;;;7.55;5.43;;;;;;;22.77;100.00;101693.41;2611018;31;20023;-49
2022/09/04 08:30:23;;;;;;;8.95;5.38;;;;;;;22.72;100.00;101692.09;2610399;36;20034;-54
2022/09/04 08:33:26;;;;;;;7.97;5.47;;;;;;;22.75;100.00;101702.69;2611209;31;20304;-53
2022/09/04 08:36:01;;;;;;;6.65;5.40;;;;;;;23.29;100.00;101699.56;2612502;36;20434;-51
2022/09/04 08:38:48;;;;;;;7.70;5.75;;;;;;;23.49;100.00;101702.44;2611461;36;20034;-51
2022/09/04 08:41:44;;;;;;;6.53;4.75;;;;;;;23.34;100.00;101708.06;2610450;36;20042;-53
2022/09/04 08:44:45;;;;;;;6.22;5.00;;;;;;;23.27;100.00;101699.75;2611920;36;20045;-52
2022/09/04 08:48:01;;;;;;;6.70;5.05;;;;;;;23.40;100.00;101697.09;2612044;36;20555;-51
2022/09/04 08:50:50;;;;;;;6.30;4.60;;;;;;;23.87;100.00;101705.66;2612582;36;20034;-49
2022/09/04 08:53:56;;;;;;;5.75;4.05;;;;;;;24.16;100.00;101713.81;2615216;36;20042;-50
2022/09/04 08:56:28;;;;;;;5.82;4.78;;;;;;;24.45;100.00;101705.22;2614702;31;20085;-50
2022/09/04 08:59:28;;;;;;;5.13;3.88;;;;;;;24.51;100.00;101710.94;2615625;36;20035;-50
2022/09/04 09:02:29;;;;;;;4.97;3.80;;;;;;;25.03;100.00;101701.09;2614329;36;20455;-48
2022/09/04 09:05:32;;;;;;;5.13;3.58;;;;;;;25.20;100.00;101698.75;2614932;31;20050;-53
2022/09/04 09:08:27;;;;;;;8.77;3.75;;;;;;;25.29;100.00;101704.88;2614125;36;20068;-53
2022/09/04 09:11:20;;;;;;;3.95;3.47;;;;;;;25.59;100.00;101704.44;2612610;36;20034;-52
2022/09/04 09:14:12;;;;;;;3.97;3.30;;;;;;;25.70;100.00;101701.84;2615329;31;20093;-53
2022/09/04 09:16:59;;;;;;;3.65;3.03;;;;;;;25.59;100.00;101704.44;2613542;36;20039;-52
2022/09/04 09:19:44;;;;;;;6.65;4.60;;;;;;;25.36;100.00;101703.00;2614445;36;20030;-49
2022/09/04 09:22:38;;;;;;;6.53;4.53;;;;;;;25.60;100.00;101703.38;2610745;36;20039;-52
2022/09/04 09:25:21;;;;;;;3.72;3.33;;;;;;;25.30;100.00;101703.81;2611596;36;20038;-50
2022/09/04 09:28:23;;;;;;;4.60;3.10;;;;;;;25.08;100.00;101705.97;2615050;36;20045;-53
2022/09/04 09:31:20;;;;;;;4.72;2.42;;;;;;;25.51;100.00;101700.00;2613337;36;20359;-52
2022/09/04 09:34:21;;;;;;;3.80;3.00;;;;;;;25.69;100.00;101702.06;2613509;36;20040;-53
2022/09/04 09:37:14;;;;;;;3.13;2.72;;;;;;;26.00;100.00;101706.88;2615614;31;20064;-49
2022/09/04 09:40:13;;;;;;;4.65;3.97;;;;;;;26.03;100.00;101700.06;2612860;36;20042;-52
2022/09/04 09:43:12;;;;;;;6.97;5.40;;;;;;;25.62;100.00;101701.25;2614112;36;20049;-53
2022/09/04 09:46:13;;;;;;;6.30;4.40;;;;;;;26.01;100.00;101704.97;2615229;36;20428;-54
2022/09/04 09:49:04;;;;;;;4.93;3.15;;;;;;;26.38;100.00;101694.16;2613773;31;20065;-51
2022/09/04 09:52:04;;;;;;;5.85;3.78;;;;;;;26.51;100.00;101696.84;2611111;36;20047;-56
2022/09/04 09:54:59;;;;;;;5.65;4.25;;;;;;;26.42;100.00;101700.09;2611911;31;20523;-54
2022/09/04 09:57:46;;;;;;;4.75;3.72;;;;;;;26.71;100.00;101699.50;2612911;36;20074;-55
2022/09/04 10:00:16;;;;;;;4.75;3.33;;;;;;;26.96;100.00;101700.56;2613265;36;20042;-50
2022/09/04 10:03:28;;;;;;;5.38;4.20;;;;;;;26.55;100.00;101705.53;2613315;36;20030;-52
2022/09/04 10:06:28;;;;;;;5.03;4.40;;;;;;;26.01;100.00;101693.94;2612869;36;20053;-52
2022/09/04 10:09:26;;;;;;;4.93;3.17;;;;;;;26.71;100.00;101698.66;2610860;36;20035;-52
2022/09/04 10:12:18;;;;;;;7.55;5.00;;;;;;;26.67;100.00;101698.25;2614657;36;20035;-51
2022/09/04 10:15:18;;;;;;;6.15;3.95;;;;;;;26.86;100.00;101688.13;2615157;36;20574;-50
2022/09/04 10:18:12;;;;;;;6.65;3.70;;;;;;;26.91;100.00;101695.72;2588739;36;20861;-54
2022/09/04 10:21:10;;;;;;;5.80;4.18;;;;;;;27.23;100.00;101702.03;2603245;31;20038;-55
2022/09/04 10:23:55;;;;;;;6.28;4.78;;;;;;;27.19;100.00;101695.25;2612209;36;20034;-51
2022/09/04 10:27:04;;;;;;;7.07;4.22;;;;;;;27.07;100.00;101699.84;2612344;36;20620;-56
2022/09/04 10:29:55;;;;;;;4.53;4.03;;;;;;;27.16;100.00;101698.47;2612555;31;20567;-54
2022/09/04 10:32:50;;;;;;;8.15;5.28;;;;;;;27.11;100.00;101703.84;2611652;36;20069;-53
2022/09/04 10:35:24;;;;;;;3.83;3.42;;;;;;;27.13;100.00;101707.22;2612847;31;20129;-49
2022/09/04 10:38:13;;;;;;;4.82;3.08;;;;;;;27.17;100.00;101696.59;2612889;36;20039;-49
2022/09/04 10:40:58;;;;;;;4.45;3.22;;;;;;;27.48;100.00;101701.19;2613824;36;20043;-52
2022/09/04 10:43:45;;;;;;;3.90;2.72;;;;;;;27.63;100.00;101703.56;2613049;36;20056;-52
2022/09/04 10:46:23;;;;;;;6.35;4.90;;;;;;;27.59;100.00;101694.91;2612801;36;22486;-50
2022/09/04 10:49:19;;;;;;;5.75;4.93;;;;;;;27.77;100.00;101707.06;2611226;36;20072;-53
2022/09/04 10:52:20;;;;;;;6.93;4.85;;;;;;;27.55;100.00;101710.25;2607907;36;20042;-53
2022/09/04 10:55:16;;;;;;;5.80;4.03;;;;;;;27.94;100.00;101708.13;2613557;36;20040;-51
2022/09/04 10:58:07;;;;;;;6.30;4.53;;;;;;;27.59;100.00;101705.97;2614644;31;20023;-53
2022/09/04 11:00:49;;;;;;;4.63;3.33;;;;;;;27.54;100.00;101711.31;2613390;31;20026;-52
2022/09/04 11:03:43;;;;;;;6.05;3.55;;;;;;;27.67;100.00;101702.06;2614213;36;20026;-50
2022/09/04 11:06:35;;;;;;;5.90;4.20;;;;;;;27.52;100.00;101693.31;2607990;31;20034;-52
2022/09/04 11:09:34;;;;;;;5.88;3.90;;;;;;;27.92;100.00;101699.19;2608854;36;20046;-51
2022/09/04 11:12:44;;;;;;;4.22;3.25;;;;;;;27.54;100.00;101708.56;2611757;31;20351;-50
2022/09/04 11:15:27;;;;;;;5.18;3.78;;;;;;;27.86;100.00;101705.66;2612901;36;20065;-53
2022/09/04 11:18:35;;;;;;;7.07;3.20;;;;;;;27.86;100.00;101707.59;2613329;36;20047;-52
2022/09/04 11:21:34;;;;;;;4.88;3.83;;;;;;;27.60;100.00;101701.28;2611950;36;20034;-51
2022/09/04 11:24:40;;;;;;;4.93;3.40;;;;;;;28.22;100.00;101720.53;2608886;36;20061;-49
2022/09/04 11:27:48;;;;;;;5.65;3.40;;;;;;;28.02;100.00;101706.13;2613857;31;20539;-52
2022/09/04 11:30:19;;;;;;;8.70;3.60;;;;;;;28.05;99.03;101703.75;2613112;36;20538;-53
2022/09/04 11:33:17;;;;;;;5.35;3.15;;;;;;;27.94;98.92;101705.34;2614256;36;20030;-53
2022/09/04 11:36:17;;;;;;;6.38;3.83;;;;;;;27.76;97.68;101700.66;2609440;36;20041;-48
2022/09/04 11:39:18;;;;;;;4.72;3.20;;;;;;;27.83;100.00;101705.25;2602788;31;20417;-52
2022/09/04 11:42:19;;;;;;;6.65;2.90;;;;;;;27.93;95.33;101705.56;2612415;36;20034;-51
2022/09/04 11:45:28;;;;;;;3.97;2.10;;;;;;;27.97;79.82;101698.53;2612753;36;20042;-49
2022/09/04 11:48:42;;;;;;;3.42;2.30;;;;;;;28.01;92.98;101707.22;2612167;36;20065;-49
2022/09/04 11:51:41;;;;;;;3.25;2.38;;;;;;;28.50;87.65;101696.94;2611780;31;20076;-52
2022/09/04 11:54:33;;;;;;;3.63;2.40;;;;;;;28.88;81.31;101703.22;2608455;36;20034;-51
2022/09/04 11:57:08;;;;;;;2.80;2.10;;;;;;;29.38;69.33;101700.00;2610844;36;20030;-49
2022/09/04 11:59:52;;;;;;;4.07;1.88;;;;;;;29.82;73.77;101694.09;2611382;36;20057;-50
2022/09/04 12:02:48;;;;;;;2.78;2.30;;;;;;;29.96;69.02;101698.28;2612123;31;20412;-52
2022/09/04 12:05:38;;;;;;;3.67;3.00;;;;;;;28.58;78.84;101712.41;2611474;36;20611;-50
2022/09/04 12:08:34;;;;;;;4.28;3.03;;;;;;;27.92;95.45;101704.72;2610155;36;20085;-49
2022/09/04 12:11:30;;;;;;;4.82;2.83;;;;;;;27.68;94.60;101702.88;2609115;31;20157;-49
2022/09/04 12:14:36;;;;;;;3.42;2.40;;;;;;;28.04;100.00;101706.75;2609147;36;20022;-51
2022/09/04 12:17:30;;;;;;;4.40;2.67;;;;;;;28.44;87.68;101706.19;2610477;36;20062;-50
2022/09/04 12:20:44;;;;;;;2.70;1.98;;;;;;;28.87;80.41;101702.34;2611244;36;20034;-53
2022/09/04 12:23:41;;;;;;;3.58;2.33;;;;;;;28.77;77.70;101707.63;2603417;36;20626;-48
2022/09/04 12:26:28;;;;;;;3.20;2.50;;;;;;;28.66;83.98;101715.69;2610046;36;20057;-49
2022/09/04 12:29:26;;;;;;;3.78;2.63;;;;;;;29.13;72.99;101711.31;2612127;36;20030;-49
2022/09/04 12:32:13;;;;;;;;;;;;;;;28.74;81.70;101713.66;2613431;31;20046;-55
2022/09/04 12:35:02;;;;;;;4.45;2.40;;;;;;;28.73;82.72;101714.75;2612537;31;19952;-49
2022/09/04 12:38:03;;;;;;;4.22;2.17;;;;;;;28.76;81.50;101717.06;2610950;36;20069;-49